createdAt,value
2023-03-02T00:02:18.306Z,32.97
2023-03-02T00:04:52.690Z,29.17
2023-03-02T00:07:24.510Z,30.60
2023-03-02T00:09:51.196Z,36.45
2023-03-02T00:12:17.877Z,34.08
2023-03-02T00:14:44.910Z,34.10
2023-03-02T00:17:12.217Z,32.50
2023-03-02T00:19:39.128Z,33.13
2023-03-02T00:22:06.134Z,32.33
2023-03-02T00:24:33.061Z,34.47
2023-03-02T00:27:00.372Z,32.63
2023-03-02T00:29:27.152Z,29.52
2023-03-02T00:31:53.933Z,35.53
2023-03-02T00:34:20.812Z,36.67
2023-03-02T00:36:49.628Z,35.83
2023-03-02T00:39:20.215Z,35.97
2023-03-02T00:41:47.730Z,32.22
2023-03-02T00:44:17.652Z,35.58
2023-03-02T00:46:45.226Z,33.05
2023-03-02T00:49:12.834Z,35.42
2023-03-02T00:51:39.561Z,35.05
2023-03-02T00:54:06.266Z,32.13
2023-03-02T00:56:33.270Z,36.05
2023-03-02T00:59:11.182Z,35.20
2023-03-02T01:01:38.037Z,35.75
2023-03-02T01:04:04.897Z,33.63
2023-03-02T01:06:31.774Z,31.90
2023-03-02T01:08:58.593Z,34.13
2023-03-02T01:11:25.317Z,36.65
2023-03-02T01:13:51.979Z,36.42
2023-03-02T01:16:18.789Z,36.53
2023-03-02T01:18:45.554Z,35.72
2023-03-02T01:21:14.070Z,34.08
2023-03-02T01:23:40.720Z,34.58
2023-03-02T01:26:07.671Z,35.03
2023-03-02T01:28:34.300Z,37.42
2023-03-02T01:31:04.707Z,38.25
2023-03-02T01:33:31.925Z,37.08
2023-03-02T01:35:58.719Z,39.47
2023-03-02T01:38:25.552Z,38.22
2023-03-02T01:40:52.218Z,38.85
2023-03-02T01:43:18.901Z,40.97
2023-03-02T01:45:53.738Z,36.35
2023-03-02T01:48:23.776Z,36.53
2023-03-02T01:50:50.663Z,36.42
2023-03-02T01:53:17.632Z,36.58
2023-03-02T01:55:45.673Z,36.20
2023-03-02T01:58:13.642Z,39.38
2023-03-02T02:00:40.533Z,37.55
2023-03-02T02:03:21.154Z,38.72
2023-03-02T02:06:17.592Z,38.92
2023-03-02T02:08:47.222Z,41.58
2023-03-02T02:11:13.967Z,38.40
2023-03-02T02:13:40.794Z,39.35
2023-03-02T02:16:07.903Z,37.20
2023-03-02T02:18:36.308Z,37.45
2023-03-02T02:21:03.309Z,35.05
2023-03-02T02:23:43.300Z,40.55
2023-03-02T02:26:31.429Z,39.05
2023-03-02T02:29:12.334Z,35.95
2023-03-02T02:31:51.520Z,39.38
2023-03-02T02:34:23.070Z,40.22
2023-03-02T02:36:51.387Z,38.38
2023-03-02T02:39:29.032Z,42.40
2023-03-02T02:41:57.133Z,40.78
2023-03-02T02:44:23.889Z,40.22
2023-03-02T02:46:50.591Z,40.33
2023-03-02T02:49:30.642Z,44.03
2023-03-02T02:51:58.065Z,39.88
2023-03-02T02:54:24.756Z,41.10
2023-03-02T02:56:51.528Z,40.13
2023-03-02T02:59:21.472Z,37.50
2023-03-02T03:01:48.734Z,41.40
2023-03-02T03:04:19.093Z,38.13
2023-03-02T03:07:01.215Z,39.97
2023-03-02T03:09:28.251Z,39.42
2023-03-02T03:12:08.567Z,43.63
2023-03-02T03:14:36.902Z,37.85
2023-03-02T03:17:03.674Z,33.95
2023-03-02T03:19:31.917Z,38.08
2023-03-02T03:22:00.256Z,41.47
2023-03-02T03:24:28.341Z,39.72
2023-03-02T03:26:55.865Z,42.00
2023-03-02T03:29:24.285Z,40.40
2023-03-02T03:31:54.773Z,41.10
2023-03-02T03:34:22.094Z,40.90
2023-03-02T03:36:48.879Z,42.72
2023-03-02T03:39:16.459Z,43.25
2023-03-02T03:41:43.216Z,45.20
2023-03-02T03:44:10.099Z,39.53
2023-03-02T03:46:36.988Z,44.13
2023-03-02T03:49:04.094Z,44.22
2023-03-02T03:51:35.389Z,42.10
2023-03-02T03:54:03.684Z,43.80
2023-03-02T03:56:36.141Z,40.25
2023-03-02T03:59:07.216Z,43.35
2023-03-02T04:01:40.399Z,41.90
2023-03-02T04:06:35.244Z,39.85
2023-03-02T04:09:05.105Z,45.40
2023-03-02T04:11:33.426Z,50.17
2023-03-02T04:14:00.275Z,43.22
2023-03-02T04:16:27.652Z,44.88
2023-03-02T04:18:54.486Z,46.15
2023-03-02T04:21:21.425Z,41.55
2023-03-02T04:23:49.256Z,50.47
2023-03-02T04:26:16.138Z,47.75
2023-03-02T04:28:42.816Z,42.03
2023-03-02T04:31:09.584Z,44.28
2023-03-02T04:33:36.316Z,39.92
2023-03-02T04:36:03.081Z,41.83
2023-03-02T04:38:29.975Z,42.08
2023-03-02T04:40:57.646Z,45.90
2023-03-02T04:43:25.679Z,46.42
2023-03-02T04:45:53.594Z,47.05
2023-03-02T04:48:23.268Z,39.97
2023-03-02T04:50:50.451Z,42.35
2023-03-02T04:53:17.650Z,47.08
2023-03-02T04:55:44.401Z,39.80
2023-03-02T04:58:11.121Z,45.60
2023-03-02T05:00:37.907Z,42.15
2023-03-02T05:03:06.808Z,44.35
2023-03-02T05:05:34.024Z,43.40
2023-03-02T05:08:00.822Z,48.08
2023-03-02T05:10:28.335Z,45.97
2023-03-02T05:12:57.879Z,42.63
2023-03-02T05:15:26.681Z,47.63
2023-03-02T05:17:53.483Z,47.38
2023-03-02T05:20:21.046Z,45.35
2023-03-02T05:22:47.787Z,45.88
2023-03-02T05:25:14.725Z,45.63
2023-03-02T05:27:41.457Z,43.22
2023-03-02T05:30:09.571Z,46.90
2023-03-02T05:32:36.367Z,49.17
2023-03-02T05:35:03.141Z,45.30
2023-03-02T05:37:29.822Z,45.67
2023-03-02T05:39:56.665Z,51.10
2023-03-02T05:42:23.381Z,42.55
2023-03-02T05:44:50.147Z,46.00
2023-03-02T05:47:17.029Z,49.80
2023-03-02T05:49:43.810Z,46.47
2023-03-02T05:52:10.602Z,46.10
2023-03-02T05:54:37.239Z,50.15
2023-03-02T05:57:04.008Z,44.47
2023-03-02T05:59:30.721Z,45.17
2023-03-02T06:01:59.375Z,45.63
2023-03-02T06:04:26.416Z,41.35
2023-03-02T06:06:53.144Z,47.10
2023-03-02T06:09:19.950Z,44.22
2023-03-02T06:11:46.625Z,40.33
2023-03-02T06:14:13.349Z,42.80
2023-03-02T06:16:40.440Z,41.17
2023-03-02T06:19:07.387Z,46.00
2023-03-02T06:21:34.106Z,42.55
2023-03-02T06:24:00.749Z,42.20
2023-03-02T06:26:27.470Z,44.85
2023-03-02T06:28:54.290Z,41.33
2023-03-02T06:31:21.903Z,42.40
2023-03-02T06:33:48.790Z,41.35
2023-03-02T06:36:17.286Z,43.00
2023-03-02T06:38:44.031Z,43.97
2023-03-02T06:41:10.724Z,45.88
2023-03-02T06:43:37.396Z,37.85
2023-03-02T06:46:04.335Z,49.30
2023-03-02T06:48:31.090Z,51.25
2023-03-02T06:50:58.227Z,53.65
2023-03-02T06:53:25.002Z,59.10
2023-03-02T06:55:52.078Z,68.75
2023-03-02T06:58:18.880Z,82.47
2023-03-02T07:00:46.139Z,67.10
2023-03-02T07:03:12.848Z,61.75
2023-03-02T07:05:39.603Z,57.47
2023-03-02T07:08:07.461Z,55.78
2023-03-02T07:10:34.239Z,44.90
2023-03-02T07:13:01.031Z,42.65
2023-03-02T07:15:28.084Z,45.20
2023-03-02T07:17:54.970Z,43.70
2023-03-02T07:20:21.887Z,38.30
2023-03-02T07:22:48.608Z,41.72
2023-03-02T07:25:15.472Z,39.60
2023-03-02T07:27:42.488Z,41.30
2023-03-02T07:30:09.837Z,48.53
2023-03-02T07:32:36.669Z,50.15
2023-03-02T07:35:03.670Z,54.17
2023-03-02T07:37:30.351Z,44.28
2023-03-02T07:39:59.199Z,42.45
2023-03-02T07:42:27.140Z,41.80
2023-03-02T07:44:54.386Z,39.85
2023-03-02T07:47:21.422Z,37.70
2023-03-02T07:49:48.197Z,37.42
2023-03-02T07:52:15.251Z,39.72
2023-03-02T07:54:41.937Z,36.78
2023-03-02T07:57:08.711Z,36.15
2023-03-02T07:59:35.524Z,39.83
2023-03-02T08:02:02.282Z,34.75
2023-03-02T08:04:29.047Z,36.58
2023-03-02T08:06:55.776Z,42.08
2023-03-02T08:09:22.471Z,39.60
2023-03-02T08:11:52.997Z,41.83
2023-03-02T08:14:19.759Z,32.80
2023-03-02T08:16:46.575Z,33.92
2023-03-02T08:19:13.395Z,33.67
2023-03-02T08:21:40.825Z,31.30
2023-03-02T08:24:07.960Z,34.95
2023-03-02T08:26:34.873Z,28.65
2023-03-02T08:29:02.334Z,34.50
2023-03-02T08:31:29.466Z,32.42
2023-03-02T08:33:56.470Z,32.53
2023-03-02T08:36:23.442Z,30.95
2023-03-02T08:38:50.261Z,28.98
2023-03-02T08:41:20.077Z,28.13
2023-03-02T08:43:47.484Z,32.70
2023-03-02T08:46:17.008Z,26.73
2023-03-02T08:48:44.688Z,30.52
2023-03-02T08:51:23.382Z,29.45
2023-03-02T08:53:52.432Z,29.85
2023-03-02T08:56:25.280Z,27.42
2023-03-02T09:01:22.196Z,28.00
2023-03-02T09:03:49.473Z,26.63
2023-03-02T09:06:16.604Z,27.70
2023-03-02T09:08:44.080Z,30.58
2023-03-02T09:11:11.380Z,28.40
2023-03-02T09:13:38.512Z,26.77
2023-03-02T09:16:05.924Z,26.45
2023-03-02T09:18:38.327Z,28.15
2023-03-02T09:21:05.837Z,25.80
2023-03-02T09:23:37.069Z,29.17
2023-03-02T09:26:04.721Z,27.10
2023-03-02T09:28:31.848Z,25.83
2023-03-02T09:31:01.200Z,28.73
2023-03-02T09:33:28.486Z,27.70
2023-03-02T09:35:55.386Z,25.40
2023-03-02T09:38:22.471Z,26.13
2023-03-02T09:41:05.352Z,23.05
2023-03-02T09:43:54.037Z,26.20
2023-03-02T09:46:27.857Z,27.17
2023-03-02T09:49:15.702Z,24.65
2023-03-02T09:51:42.602Z,26.88
2023-03-02T09:54:21.566Z,24.08
2023-03-02T09:56:59.776Z,26.75
2023-03-02T09:59:29.448Z,27.98
2023-03-02T10:02:24.829Z,23.77
2023-03-02T10:04:54.682Z,25.15
2023-03-02T10:07:29.870Z,24.45
2023-03-02T10:10:04.993Z,25.90
2023-03-02T10:12:43.860Z,21.48
2023-03-02T10:15:28.880Z,29.63
2023-03-02T10:18:19.095Z,23.13
2023-03-02T10:21:13.090Z,25.55
2023-03-02T10:23:42.605Z,22.92
2023-03-02T10:26:19.051Z,25.33
2023-03-02T10:28:52.048Z,22.63
2023-03-02T10:31:24.079Z,26.73
2023-03-02T10:33:51.117Z,25.83
2023-03-02T10:36:34.860Z,24.50
2023-03-02T10:39:01.857Z,25.05
2023-03-02T10:41:39.987Z,26.23
2023-03-02T10:44:15.640Z,24.98
2023-03-02T10:46:47.764Z,24.15
2023-03-02T10:49:27.976Z,23.67
2023-03-02T10:52:15.779Z,22.48
2023-03-02T10:54:42.761Z,26.45
2023-03-02T10:57:38.207Z,24.92
2023-03-02T11:00:11.651Z,23.77
2023-03-02T11:02:38.377Z,23.05
2023-03-02T11:05:21.448Z,25.27
2023-03-02T11:07:58.562Z,26.48
2023-03-02T11:10:41.607Z,27.80
2023-03-02T11:13:29.213Z,31.23
2023-03-02T11:16:01.030Z,25.08
2023-03-02T11:18:42.921Z,23.20
2023-03-02T11:21:41.290Z,22.35
2023-03-02T11:24:14.099Z,22.00
2023-03-02T11:26:59.603Z,20.75
2023-03-02T11:29:42.363Z,25.13
2023-03-02T11:32:09.156Z,26.13
2023-03-02T11:34:52.219Z,25.23
2023-03-02T11:37:21.461Z,22.33
2023-03-02T12:31:17.357Z,23.85
2023-03-02T12:33:48.825Z,17.70
2023-03-02T12:36:34.271Z,23.40
2023-03-02T12:39:14.526Z,21.55
2023-03-02T12:41:50.220Z,22.38
2023-03-02T12:44:43.910Z,16.45
2023-03-02T12:47:17.619Z,24.10
2023-03-02T12:49:56.180Z,19.02
2023-03-02T12:52:36.382Z,19.85
2023-03-02T12:55:09.506Z,18.33
2023-03-02T12:57:48.677Z,17.35
2023-03-02T13:00:19.544Z,17.35
2023-03-02T13:02:49.097Z,16.90
2023-03-02T13:05:22.909Z,19.30
2023-03-02T13:08:01.474Z,17.90
2023-03-02T13:10:36.084Z,19.35
2023-03-02T13:13:06.581Z,20.83
2023-03-02T13:15:33.663Z,19.13
2023-03-02T13:18:00.525Z,18.58
2023-03-02T13:20:29.233Z,18.95
2023-03-02T13:22:56.067Z,17.00
2023-03-02T13:25:28.640Z,18.88
2023-03-02T13:27:57.706Z,18.23
2023-03-02T13:30:26.030Z,17.25
2023-03-02T13:32:54.452Z,18.50
2023-03-02T13:35:26.152Z,17.90
2023-03-02T13:38:00.636Z,15.50
2023-03-02T13:40:27.523Z,16.90
2023-03-02T13:42:55.037Z,18.60
2023-03-02T13:45:26.518Z,18.60
2023-03-02T13:47:54.670Z,20.20
2023-03-02T13:50:25.527Z,22.55
2023-03-02T13:52:53.546Z,18.90
2023-03-02T13:55:21.196Z,20.63
2023-03-02T13:57:48.738Z,19.83
2023-03-02T14:00:35.809Z,17.88
2023-03-02T14:03:02.543Z,20.08
2023-03-02T14:05:35.138Z,24.83
2023-03-02T14:08:03.041Z,26.05
2023-03-02T14:10:29.836Z,20.88
2023-03-02T14:13:02.359Z,19.27
2023-03-02T14:15:29.168Z,17.30
2023-03-02T14:17:55.827Z,16.83
2023-03-02T14:20:22.554Z,19.65
2023-03-02T14:22:50.669Z,18.75
2023-03-02T14:25:26.097Z,18.38
2023-03-02T14:27:52.867Z,17.05
2023-03-02T14:30:20.805Z,20.05
2023-03-02T14:32:47.602Z,20.98
2023-03-02T14:35:15.929Z,21.73
2023-03-02T14:37:49.221Z,20.83
2023-03-02T14:40:22.134Z,26.77
2023-03-02T14:45:16.621Z,19.65
2023-03-02T14:47:43.351Z,22.67
2023-03-02T14:50:11.891Z,20.30
2023-03-02T14:52:45.845Z,19.65
2023-03-02T14:55:25.815Z,20.98
2023-03-02T14:58:17.055Z,21.92
2023-03-02T15:00:44.320Z,23.23
2023-03-02T15:03:20.484Z,20.98
2023-03-02T15:06:00.146Z,21.33
2023-03-02T15:08:27.907Z,21.98
2023-03-02T15:10:54.614Z,23.08
2023-03-02T15:13:21.316Z,23.10
2023-03-02T15:15:48.820Z,19.30
2023-03-02T15:18:17.359Z,24.00
2023-03-02T15:20:44.041Z,24.25
2023-03-02T15:23:10.826Z,20.48
2023-03-02T15:25:37.644Z,23.85
2023-03-02T15:28:04.517Z,24.40
2023-03-02T15:30:31.301Z,17.73
2023-03-02T15:32:59.630Z,22.88
2023-03-02T15:35:29.485Z,23.13
2023-03-02T15:37:58.376Z,21.20
2023-03-02T15:40:25.820Z,24.65
2023-03-02T15:42:53.207Z,19.33
2023-03-02T15:45:20.141Z,20.42
2023-03-02T15:47:46.886Z,20.63
2023-03-02T15:50:13.572Z,23.00
2023-03-02T15:52:41.637Z,22.10
2023-03-02T15:55:08.765Z,24.42
2023-03-02T15:57:39.458Z,20.65
2023-03-02T16:00:07.231Z,22.23
2023-03-02T16:02:34.269Z,23.52
2023-03-02T16:05:01.041Z,25.27
2023-03-02T16:07:27.992Z,25.60
2023-03-02T16:09:54.792Z,25.88
2023-03-02T16:12:23.520Z,23.02
2023-03-02T16:14:50.411Z,23.20
2023-03-02T16:17:19.837Z,20.70
2023-03-02T16:19:46.617Z,21.10
2023-03-02T16:22:13.695Z,25.88
2023-03-02T16:24:41.866Z,24.63
2023-03-02T16:27:09.134Z,24.48
2023-03-02T16:29:35.891Z,22.65
2023-03-02T16:32:02.852Z,25.10
2023-03-02T16:34:29.639Z,24.55
2023-03-02T16:36:58.714Z,30.58
2023-03-02T16:39:25.772Z,28.60
2023-03-02T16:41:52.721Z,31.67
2023-03-02T16:44:19.522Z,29.27
2023-03-02T16:46:46.545Z,29.80
2023-03-02T16:49:13.966Z,24.90
2023-03-02T16:51:41.442Z,27.33
2023-03-02T16:54:08.126Z,28.48
2023-03-02T16:56:35.008Z,29.95
2023-03-02T16:59:01.765Z,33.25
2023-03-02T17:01:29.400Z,25.88
2023-03-02T17:03:56.535Z,25.40
2023-03-02T17:06:23.584Z,23.63
2023-03-02T17:08:50.907Z,29.48
2023-03-02T17:11:18.080Z,24.88
2023-03-02T17:13:44.867Z,25.08
2023-03-02T17:16:11.720Z,27.27
2023-03-02T17:18:41.135Z,27.60
2023-03-02T17:21:08.461Z,27.30
2023-03-02T17:23:37.009Z,32.83
2023-03-02T17:26:04.148Z,30.42
2023-03-02T17:28:30.969Z,28.85
2023-03-02T17:30:57.807Z,31.02
2023-03-02T17:33:24.537Z,30.65
2023-03-02T17:35:53.352Z,31.10
2023-03-02T17:38:20.136Z,27.50
2023-03-02T17:40:46.830Z,31.45
2023-03-02T17:43:13.527Z,30.08
2023-03-02T17:45:40.399Z,27.80
2023-03-02T17:48:07.497Z,30.88
2023-03-02T17:50:34.298Z,27.45
2023-03-02T17:53:02.177Z,31.42
2023-03-02T17:55:29.608Z,27.63
2023-03-02T17:57:56.318Z,34.20
2023-03-02T18:00:23.689Z,28.50
2023-03-02T18:02:51.031Z,30.23
2023-03-02T18:05:17.916Z,28.05
2023-03-02T18:07:44.805Z,26.90
2023-03-02T18:10:12.265Z,31.83
2023-03-02T18:12:38.973Z,30.40
2023-03-02T18:15:06.222Z,30.73
2023-03-02T18:17:32.956Z,29.98
2023-03-02T18:19:59.649Z,26.88
2023-03-02T18:22:26.402Z,27.67
2023-03-02T18:24:53.091Z,31.42
2023-03-02T18:27:20.529Z,30.73
2023-03-02T18:29:47.255Z,35.58
2023-03-02T18:32:14.515Z,33.97
2023-03-02T18:34:41.769Z,31.45
2023-03-02T18:37:09.140Z,36.88
2023-03-02T18:39:37.863Z,33.03
2023-03-02T18:42:05.438Z,31.83
2023-03-02T18:44:32.125Z,46.83
2023-03-02T18:46:59.054Z,45.75
2023-03-02T18:49:25.955Z,49.13
2023-03-02T18:51:53.120Z,62.08
2023-03-02T18:54:20.222Z,46.30
2023-03-02T18:56:47.357Z,49.28
2023-03-02T18:59:14.079Z,49.15
2023-03-02T19:01:40.930Z,40.65
2023-03-02T19:04:07.933Z,34.13
2023-03-02T19:06:34.734Z,37.28
2023-03-02T19:09:01.428Z,32.95
2023-03-02T19:11:28.292Z,32.05
2023-03-02T19:13:55.023Z,36.58
2023-03-02T19:16:21.845Z,35.45
2023-03-02T19:18:48.789Z,37.25
2023-03-02T19:21:16.256Z,40.20
2023-03-02T19:23:44.109Z,37.40
2023-03-02T19:26:12.281Z,33.42
2023-03-02T19:28:40.008Z,35.20
2023-03-02T19:31:09.054Z,46.13
2023-03-02T19:33:36.222Z,44.25
2023-03-02T19:36:03.688Z,37.55
2023-03-02T19:38:30.526Z,37.00
2023-03-02T19:40:58.604Z,40.50
2023-03-02T19:43:25.940Z,39.15
2023-03-02T19:45:53.103Z,36.22
2023-03-02T19:48:20.158Z,37.55
2023-03-02T19:50:47.300Z,36.88
2023-03-02T19:53:14.303Z,36.15
2023-03-02T19:55:42.652Z,39.95
2023-03-02T19:58:11.269Z,42.28
2023-03-02T20:00:38.948Z,41.30
2023-03-02T20:03:06.340Z,37.55
2023-03-02T20:05:33.153Z,38.97
2023-03-02T20:07:59.947Z,39.42
2023-03-02T20:10:31.194Z,36.97
2023-03-02T20:12:59.802Z,36.95
2023-03-02T20:15:31.925Z,36.95
2023-03-02T20:17:59.567Z,35.30
2023-03-02T20:20:29.624Z,36.20
2023-03-02T20:22:56.411Z,42.30
2023-03-02T20:25:23.678Z,39.55
2023-03-02T20:27:53.973Z,35.17
2023-03-02T20:30:37.210Z,37.20
2023-03-02T20:33:07.488Z,39.97
2023-03-02T20:35:41.126Z,41.70
2023-03-02T20:38:16.251Z,36.40
2023-03-02T20:40:43.346Z,42.40
2023-03-02T20:43:10.161Z,40.17
2023-03-02T20:45:37.458Z,43.38
2023-03-02T20:48:05.994Z,41.80
2023-03-02T20:50:34.217Z,38.45
2023-03-02T20:53:01.349Z,41.17
2023-03-02T20:55:28.189Z,42.00
2023-03-02T20:57:55.903Z,44.03
2023-03-02T21:00:25.974Z,42.65
2023-03-02T21:02:52.785Z,42.00
2023-03-02T21:05:19.830Z,43.75
2023-03-02T21:07:47.243Z,39.08
2023-03-02T21:10:16.991Z,43.53
2023-03-02T21:12:45.794Z,45.03
2023-03-02T21:15:12.896Z,56.40
2023-03-02T21:17:39.601Z,51.50
2023-03-02T21:20:07.004Z,49.63
2023-03-02T21:22:34.068Z,49.92
2023-03-02T21:25:01.657Z,48.88
2023-03-02T21:27:29.587Z,50.00
2023-03-02T21:29:56.598Z,44.92
2023-03-02T21:32:24.132Z,45.63
2023-03-02T21:34:50.884Z,51.38
2023-03-02T21:37:20.418Z,46.40
2023-03-02T21:39:47.327Z,48.58
2023-03-02T21:42:14.061Z,87.95
2023-03-02T21:44:40.711Z,63.63
2023-03-02T21:47:07.708Z,48.75
2023-03-02T21:49:34.541Z,46.90
2023-03-02T21:52:01.487Z,43.80
2023-03-02T21:54:28.196Z,44.92
2023-03-02T21:56:54.930Z,42.53
2023-03-02T21:59:21.578Z,46.13
2023-03-02T22:01:48.487Z,45.88
2023-03-02T22:04:15.214Z,47.17
2023-03-02T22:06:41.912Z,42.65
2023-03-02T22:09:08.601Z,48.78
2023-03-02T22:11:36.645Z,53.83
2023-03-02T22:14:24.128Z,60.80
2023-03-02T22:16:52.195Z,57.90
2023-03-02T22:19:32.261Z,54.33
2023-03-02T22:22:00.290Z,52.17
2023-03-02T22:24:29.200Z,49.85
2023-03-02T22:27:02.239Z,50.88
2023-03-02T22:29:47.881Z,48.05
2023-03-02T22:32:19.352Z,45.67
2023-03-02T22:34:47.829Z,45.97
2023-03-02T22:37:20.196Z,47.70
2023-03-02T22:39:48.066Z,43.97
2023-03-02T22:42:22.703Z,46.63
2023-03-02T22:45:14.938Z,48.08
2023-03-02T22:47:42.680Z,47.17
2023-03-02T22:50:28.627Z,49.33
2023-03-02T22:52:56.552Z,44.03
2023-03-02T22:55:42.989Z,46.40
2023-03-02T22:58:25.101Z,47.45
2023-03-02T23:00:52.077Z,49.25
2023-03-02T23:03:24.101Z,51.88
2023-03-02T23:05:51.707Z,49.78
2023-03-02T23:08:21.532Z,49.10
2023-03-02T23:10:48.858Z,50.95
2023-03-02T23:13:17.757Z,53.80
2023-03-02T23:15:45.465Z,50.05
2023-03-02T23:18:29.295Z,51.60
2023-03-02T23:20:56.095Z,52.13
2023-03-02T23:23:24.274Z,46.97
2023-03-02T23:25:51.058Z,53.17
2023-03-02T23:28:17.771Z,49.65
2023-03-02T23:30:45.387Z,49.13
2023-03-02T23:33:12.095Z,47.10
2023-03-02T23:35:38.867Z,49.10
2023-03-02T23:38:05.523Z,50.38
2023-03-02T23:40:32.206Z,49.78
2023-03-02T23:42:58.891Z,51.88
2023-03-02T23:45:26.513Z,51.15
2023-03-02T23:47:53.301Z,54.08
2023-03-02T23:50:20.076Z,50.03
2023-03-02T23:52:46.869Z,50.90
2023-03-02T23:55:13.583Z,53.53
2023-03-02T23:57:40.318Z,49.97
